Time;durP1;ratioP1;P1;durP2;ratioP2;P2;SDS_P1;SDS_P2;PMS_P1;PMS_P2;Temp;Humidity;BMP_temperature;BMP_pressure;BME280_temperature;BME280_humidity;BME280_pressure;Samples;Min_cycle;Max_cycle;Signal;HPM_P1;HPM_P2
2023/01/20 00:00:29;;;;;;;12.40;3.97;;;-2.20;99.90;;;;;;4944706;28;20716;-81
2023/01/20 00:02:56;;;;;;;10.03;3.03;;;-2.20;99.90;;;;;;4928223;28;20359;-81
2023/01/20 00:05:24;;;;;;;7.37;2.93;;;-2.10;99.90;;;;;;4932830;28;20253;-82
2023/01/20 00:07:51;;;;;;;8.87;3.10;;;-2.10;99.90;;;;;;4944772;28;20234;-81
2023/01/20 00:10:18;;;;;;;5.77;3.03;;;-2.00;99.90;;;;;;4929382;28;20239;-81
2023/01/20 00:12:47;;;;;;;8.03;3.07;;;-1.90;99.90;;;;;;4933564;29;20296;-81
2023/01/20 00:15:14;;;;;;;7.70;3.33;;;-1.90;99.90;;;;;;4933571;28;20313;-81
2023/01/20 00:17:41;;;;;;;4.93;2.80;;;-1.80;99.90;;;;;;4943603;28;20862;-80
2023/01/20 00:20:09;;;;;;;7.33;3.20;;;-1.80;99.90;;;;;;4927391;28;20226;-81
2023/01/20 00:22:41;;;;;;;9.97;3.17;;;-1.70;99.90;;;;;;4944024;28;20697;-81
2023/01/20 00:25:09;;;;;;;10.27;3.10;;;-1.70;99.90;;;;;;4943113;28;20236;-81
2023/01/20 00:27:35;;;;;;;8.73;2.90;;;-1.60;99.90;;;;;;4943968;28;20230;-80
2023/01/20 00:30:02;;;;;;;8.33;3.40;;;-1.60;99.90;;;;;;4927375;29;20224;-80
2023/01/20 00:32:29;;;;;;;7.37;2.70;;;-1.60;99.90;;;;;;4928208;29;20321;-80
2023/01/20 00:34:56;;;;;;;7.60;3.33;;;-1.60;99.90;;;;;;4944769;28;20722;-80
2023/01/20 00:37:23;;;;;;;5.53;3.00;;;-1.50;99.90;;;;;;4932975;28;20256;-80
2023/01/20 00:39:53;;;;;;;10.87;2.80;;;-1.50;99.90;;;;;;4931229;29;20333;-80
2023/01/20 00:42:20;;;;;;;9.03;3.87;;;-1.50;99.90;;;;;;4928206;28;20227;-80
2023/01/20 00:44:48;;;;;;;8.77;3.60;;;-1.50;99.90;;;;;;4944704;28;20233;-80
2023/01/20 00:47:14;;;;;;;7.67;2.80;;;-1.50;99.90;;;;;;4931879;28;20225;-80
2023/01/20 00:49:41;;;;;;;7.87;2.90;;;-1.50;99.90;;;;;;4927576;29;20215;-80
2023/01/20 00:52:08;;;;;;;9.73;3.10;;;-1.50;99.90;;;;;;4943825;28;20222;-80
2023/01/20 00:54:35;;;;;;;7.50;3.60;;;-1.50;99.90;;;;;;4940529;28;20594;-80
2023/01/20 00:57:03;;;;;;;6.47;3.33;;;-1.50;99.90;;;;;;4946774;28;20294;-79
2023/01/20 00:59:30;;;;;;;11.07;3.73;;;-1.50;99.90;;;;;;4947058;28;20256;-81
2023/01/20 01:01:56;;;;;;;10.10;4.00;;;-1.50;99.90;;;;;;4944851;28;20227;-80
2023/01/20 01:04:25;;;;;;;9.60;4.37;;;-1.50;99.90;;;;;;4946289;28;20248;-80
2023/01/20 01:06:51;;;;;;;8.83;3.73;;;-1.50;99.90;;;;;;4943616;28;21079;-80
2023/01/20 01:09:20;;;;;;;8.67;4.03;;;-1.50;99.90;;;;;;4931610;29;20243;-81
2023/01/20 01:11:47;;;;;;;9.27;4.40;;;-1.50;99.90;;;;;;4931757;29;20767;-81
2023/01/20 01:14:17;;;;;;;10.37;4.87;;;-1.50;99.90;;;;;;4941271;28;20312;-81
2023/01/20 01:16:45;;;;;;;11.43;4.47;;;-1.40;99.90;;;;;;4931791;29;20333;-81
2023/01/20 01:19:14;;;;;;;12.27;5.20;;;-1.50;99.90;;;;;;4934619;28;20225;-81
2023/01/20 01:21:41;;;;;;;19.53;7.23;;;-1.50;99.90;;;;;;4946908;28;20316;-80
2023/01/20 01:24:08;;;;;;;16.03;7.73;;;-1.50;99.90;;;;;;4947642;28;20234;-81
2023/01/20 01:26:35;;;;;;;12.67;7.57;;;-1.60;99.90;;;;;;4952719;28;20231;-81
2023/01/20 01:29:02;;;;;;;17.87;9.60;;;-1.60;99.90;;;;;;4936382;28;20233;-80
2023/01/20 01:31:30;;;;;;;16.00;9.20;;;-1.70;99.90;;;;;;4950061;28;20286;-81
2023/01/20 01:33:56;;;;;;;23.37;9.70;;;-1.70;99.90;;;;;;4935859;29;20281;-81
2023/01/20 01:36:23;;;;;;;24.17;11.57;;;-1.70;99.90;;;;;;4945984;28;20732;-81
2023/01/20 01:38:50;;;;;;;23.23;11.17;;;-1.70;99.90;;;;;;4931648;29;20222;-81
2023/01/20 01:41:17;;;;;;;22.23;12.73;;;-1.80;99.90;;;;;;4927080;28;20233;-81
2023/01/20 01:44:03;;;;;;;32.73;13.87;;;-1.80;99.90;;;;;;4932729;29;20239;-80
2023/01/20 01:46:35;;;;;;;42.87;15.80;;;-1.80;99.90;;;;;;4944230;28;20866;-82
2023/01/20 01:49:06;;;;;;;28.13;14.93;;;-1.80;99.90;;;;;;4931039;29;20283;-81
2023/01/20 01:51:37;;;;;;;40.07;16.87;;;-1.80;99.90;;;;;;4935489;29;20228;-81
2023/01/20 01:54:09;;;;;;;66.00;18.87;;;-1.80;99.90;;;;;;4944995;28;20229;-81
2023/01/20 01:56:37;;;;;;;35.53;17.63;;;-1.90;99.90;;;;;;4928967;29;20333;-81
2023/01/20 01:59:04;;;;;;;38.03;18.30;;;-1.90;99.90;;;;;;4934395;28;20301;-81
2023/01/20 02:01:39;;;;;;;34.53;18.63;;;-1.90;99.90;;;;;;4931137;29;20317;-81
2023/01/20 02:04:09;;;;;;;40.13;19.97;;;-1.90;99.90;;;;;;4928069;28;20228;-80
2023/01/20 02:06:39;;;;;;;44.47;20.03;;;-1.90;99.90;;;;;;4930699;29;20900;-81
2023/01/20 02:09:06;;;;;;;36.93;19.47;;;-1.90;99.90;;;;;;4935918;28;20230;-82
2023/01/20 02:11:38;;;;;;;40.10;20.17;;;-1.90;99.90;;;;;;4930231;29;20232;-81
2023/01/20 02:14:06;;;;;;;34.30;19.73;;;-1.90;99.90;;;;;;4939449;28;20863;-81
2023/01/20 02:16:43;;;;;;;54.03;21.43;;;-2.00;99.90;;;;;;4942047;28;20238;-81
2023/01/20 02:19:47;;;;;;;37.70;21.30;;;-2.00;99.90;;;;;;4946162;28;20832;-82
2023/01/20 02:22:30;;;;;;;44.77;21.40;;;-2.00;99.90;;;;;;4945057;28;20253;-81
2023/01/20 02:25:29;;;;;;;36.37;21.43;;;-2.00;99.90;;;;;;4941642;28;20281;-81
2023/01/20 02:28:50;;;;;;;33.60;19.97;;;-2.00;99.90;;;;;;4947025;28;20320;-81
2023/01/20 02:32:04;;;;;;;44.33;21.53;;;-2.00;99.90;;;;;;4914049;28;20346;-81
2023/01/20 02:34:36;;;;;;;47.40;22.00;;;-2.10;99.90;;;;;;4924421;28;20223;-81
2023/01/20 02:37:10;;;;;;;41.70;22.57;;;-2.10;99.90;;;;;;4944281;28;20245;-81
2023/01/20 02:39:42;;;;;;;41.33;22.10;;;-2.10;99.90;;;;;;4935592;28;20230;-81
2023/01/20 02:42:16;;;;;;;70.50;23.07;;;-2.10;99.90;;;;;;4935040;28;20219;-81
2023/01/20 02:44:51;;;;;;;50.67;20.73;;;-2.10;99.90;;;;;;4937264;29;20324;-81
2023/01/20 02:47:25;;;;;;;58.53;22.87;;;-2.10;99.90;;;;;;4937433;28;20317;-81
2023/01/20 02:49:55;;;;;;;37.80;21.87;;;-2.20;99.90;;;;;;4926092;28;20231;-81
2023/01/20 02:52:25;;;;;;;41.80;21.00;;;-2.10;99.90;;;;;;4928014;29;20851;-81
2023/01/20 02:54:55;;;;;;;39.17;21.60;;;-2.20;99.90;;;;;;4928810;29;20240;-81
2023/01/20 02:57:27;;;;;;;47.43;22.37;;;-2.20;99.90;;;;;;4933532;28;20806;-81
2023/01/20 02:59:59;;;;;;;48.60;23.87;;;-2.20;99.90;;;;;;4951689;28;20899;-80
2023/01/20 03:02:34;;;;;;;44.83;25.67;;;-2.20;99.90;;;;;;4918653;29;20237;-81
2023/01/20 03:05:06;;;;;;;43.50;24.37;;;-2.20;99.90;;;;;;4942441;28;20229;-80
2023/01/20 03:07:35;;;;;;;40.33;24.03;;;-2.10;99.90;;;;;;4942822;28;20556;-81
2023/01/20 03:10:06;;;;;;;49.00;23.77;;;-2.10;99.90;;;;;;4928037;29;20233;-81
2023/01/20 03:12:39;;;;;;;42.40;23.17;;;-2.10;99.90;;;;;;4931090;29;20227;-81
2023/01/20 03:15:08;;;;;;;93.40;28.50;;;-2.10;99.90;;;;;;4923632;28;20264;-81
2023/01/20 03:17:37;;;;;;;40.23;23.30;;;-2.00;99.90;;;;;;4929850;29;20221;-82
2023/01/20 03:20:07;;;;;;;46.03;25.40;;;-2.00;99.90;;;;;;4927889;28;20226;-81
2023/01/20 03:22:35;;;;;;;53.70;25.10;;;-2.00;99.90;;;;;;4931794;29;20236;-81
2023/01/20 03:25:03;;;;;;;39.43;23.43;;;-2.00;99.90;;;;;;4933122;29;20572;-81
2023/01/20 03:27:30;;;;;;;56.33;26.80;;;-2.00;99.90;;;;;;4929093;29;20787;-81
2023/01/20 03:29:57;;;;;;;41.00;24.43;;;-2.00;99.90;;;;;;4945906;28;20222;-81
2023/01/20 03:32:25;;;;;;;45.13;25.60;;;-2.00;99.90;;;;;;4943210;28;20315;-80
2023/01/20 03:34:55;;;;;;;46.77;25.50;;;-1.90;99.90;;;;;;4929935;29;20230;-81
2023/01/20 03:37:22;;;;;;;50.87;25.87;;;-2.00;99.90;;;;;;4931382;28;20229;-80
2023/01/20 03:39:49;;;;;;;46.33;25.30;;;-1.90;99.90;;;;;;4930717;29;20325;-80
2023/01/20 03:42:24;;;;;;;40.80;24.90;;;-1.90;99.90;;;;;;4945681;28;20742;-81
2023/01/20 03:45:01;;;;;;;44.73;25.30;;;-1.90;99.90;;;;;;4933852;29;20232;-81
2023/01/20 03:47:41;;;;;;;48.83;26.50;;;-1.90;99.90;;;;;;4929138;28;20316;-81
2023/01/20 03:50:17;;;;;;;43.20;25.20;;;-1.90;99.90;;;;;;4925198;28;20233;-81
2023/01/20 03:52:51;;;;;;;60.33;26.20;;;-1.90;99.90;;;;;;4927739;29;21005;-80
2023/01/20 03:55:23;;;;;;;75.50;27.63;;;-1.90;99.90;;;;;;4938366;28;20218;-80
2023/01/20 03:57:56;;;;;;;46.03;25.60;;;-1.90;99.90;;;;;;4938656;29;20254;-79
2023/01/20 04:00:25;;;;;;;46.60;25.23;;;-1.90;99.90;;;;;;4932792;28;20246;-79
2023/01/20 04:02:54;;;;;;;70.30;27.77;;;-1.90;99.90;;;;;;4936887;29;20233;-80
2023/01/20 04:05:23;;;;;;;43.87;26.17;;;-1.90;99.90;;;;;;4926514;28;20226;-80
2023/01/20 04:07:51;;;;;;;47.80;25.87;;;-1.80;99.90;;;;;;4923577;29;20293;-80
2023/01/20 04:10:19;;;;;;;48.43;25.77;;;-1.80;99.90;;;;;;4932158;28;20312;-80
2023/01/20 04:12:46;;;;;;;45.03;25.40;;;-1.70;99.90;;;;;;4926440;29;20231;-80
2023/01/20 04:15:13;;;;;;;46.23;25.80;;;-1.70;99.90;;;;;;4923496;28;20846;-80
2023/01/20 04:17:40;;;;;;;51.43;26.73;;;-1.60;99.90;;;;;;4947514;28;20313;-80
2023/01/20 04:20:10;;;;;;;72.57;28.37;;;-1.50;99.90;;;;;;4929125;28;20217;-80
2023/01/20 04:22:44;;;;;;;45.03;24.73;;;-1.40;99.90;;;;;;4928639;29;20656;-79
2023/01/20 04:25:14;;;;;;;50.90;28.13;;;-1.40;99.90;;;;;;4935762;28;20755;-81
2023/01/20 04:27:41;;;;;;;46.73;27.30;;;-1.30;99.90;;;;;;4927317;29;20234;-81
2023/01/20 04:30:09;;;;;;;49.77;27.20;;;-1.30;99.90;;;;;;4944733;28;20248;-81
2023/01/20 04:32:36;;;;;;;49.67;27.33;;;-1.20;99.90;;;;;;4944077;28;21018;-82
2023/01/20 04:35:03;;;;;;;48.77;26.80;;;-1.20;99.90;;;;;;4922298;29;20350;-81
2023/01/20 04:37:30;;;;;;;44.93;25.73;;;-1.10;99.90;;;;;;4942236;28;20872;-81
2023/01/20 04:39:57;;;;;;;45.67;26.17;;;-1.10;99.90;;;;;;4943820;28;20219;-81
2023/01/20 04:42:26;;;;;;;46.87;25.70;;;-1.10;99.90;;;;;;4924418;29;20378;-81
2023/01/20 04:44:53;;;;;;;47.67;25.63;;;-1.00;99.90;;;;;;4945537;28;20238;-80
2023/01/20 04:47:19;;;;;;;44.20;24.80;;;-1.00;99.90;;;;;;4934614;28;20313;-81
2023/01/20 04:49:46;;;;;;;42.47;23.23;;;-1.00;99.90;;;;;;4939819;28;20248;-81
2023/01/20 04:52:14;;;;;;;44.33;24.07;;;-0.90;99.90;;;;;;4946980;28;20229;-82
2023/01/20 04:54:40;;;;;;;45.27;25.30;;;-0.90;99.90;;;;;;4950531;28;20239;-81
2023/01/20 04:57:09;;;;;;;46.03;23.60;;;-0.90;99.90;;;;;;4926361;28;20289;-79
2023/01/20 04:59:36;;;;;;;45.17;24.40;;;-0.90;99.90;;;;;;4943515;28;20277;-79
2023/01/20 05:02:03;;;;;;;44.10;22.60;;;-0.90;99.90;;;;;;4917911;29;20224;-79
2023/01/20 05:04:30;;;;;;;41.97;23.00;;;-0.80;99.90;;;;;;4926228;29;20866;-80
2023/01/20 05:06:57;;;;;;;45.20;23.73;;;-0.80;99.90;;;;;;4944535;28;20243;-80
2023/01/20 05:09:23;;;;;;;41.47;22.77;;;-0.80;99.90;;;;;;4926862;28;20239;-81
2023/01/20 05:11:50;;;;;;;38.43;21.73;;;-0.80;99.90;;;;;;4946183;28;20972;-80
2023/01/20 05:14:18;;;;;;;38.30;22.07;;;-0.80;99.90;;;;;;4943031;28;20229;-80
2023/01/20 05:16:45;;;;;;;37.90;22.47;;;-0.80;99.90;;;;;;4943902;28;20223;-80
2023/01/20 05:19:12;;;;;;;38.30;22.80;;;-0.80;99.90;;;;;;4944005;28;20226;-80
2023/01/20 05:21:41;;;;;;;40.70;22.33;;;-0.80;99.90;;;;;;4927357;28;20961;-79
2023/01/20 05:24:08;;;;;;;45.87;22.20;;;-0.70;99.90;;;;;;4945928;28;20227;-80
2023/01/20 05:26:35;;;;;;;36.23;21.57;;;-0.70;99.90;;;;;;4930177;28;20731;-80
2023/01/20 05:29:02;;;;;;;42.53;22.03;;;-0.70;99.90;;;;;;4926372;28;20337;-80
2023/01/20 05:31:30;;;;;;;82.40;24.77;;;-0.70;99.90;;;;;;4935335;29;20231;-80
2023/01/20 05:33:57;;;;;;;55.63;21.57;;;-0.70;99.90;;;;;;4927516;29;20310;-79
2023/01/20 05:36:24;;;;;;;113.03;26.60;;;-0.60;99.90;;;;;;4942121;28;20336;-79
2023/01/20 05:38:51;;;;;;;59.73;22.83;;;-0.60;99.90;;;;;;4928244;28;20228;-79
2023/01/20 05:41:18;;;;;;;52.13;21.83;;;-0.60;99.90;;;;;;4924919;28;20231;-80
2023/01/20 05:43:45;;;;;;;34.13;19.63;;;-0.60;99.90;;;;;;4951381;28;20232;-80
2023/01/20 05:46:12;;;;;;;36.63;20.93;;;-0.50;99.90;;;;;;4945262;28;20234;-80
2023/01/20 05:48:40;;;;;;;59.20;22.33;;;-0.50;99.90;;;;;;4931609;28;20741;-80
2023/01/20 05:51:07;;;;;;;39.93;20.53;;;-0.50;99.90;;;;;;4946420;28;20790;-82
2023/01/20 05:53:34;;;;;;;62.90;22.20;;;-0.50;99.90;;;;;;4948270;28;20235;-80
2023/01/20 05:56:01;;;;;;;58.23;21.63;;;-0.50;99.90;;;;;;4945230;28;20314;-80
2023/01/20 05:58:29;;;;;;;40.37;21.47;;;-0.40;99.90;;;;;;4932010;28;20227;-80
2023/01/20 06:01:03;;;;;;;38.53;20.00;;;-0.40;99.90;;;;;;4927571;28;20618;-81
2023/01/20 06:03:29;;;;;;;77.77;22.87;;;-0.40;99.90;;;;;;4948812;28;20237;-81
2023/01/20 06:06:01;;;;;;;36.53;19.20;;;-0.40;99.90;;;;;;4944585;28;20235;-80
2023/01/20 06:08:27;;;;;;;37.20;19.30;;;-0.40;99.90;;;;;;4944642;28;20235;-82
2023/01/20 06:10:54;;;;;;;35.03;19.33;;;-0.30;99.90;;;;;;4947206;28;21026;-81
2023/01/20 06:13:21;;;;;;;39.13;19.50;;;-0.30;99.90;;;;;;4932062;28;20222;-82
2023/01/20 06:15:51;;;;;;;45.23;20.40;;;-0.30;99.90;;;;;;4944217;28;20240;-82
2023/01/20 06:18:18;;;;;;;34.63;18.37;;;-0.30;99.90;;;;;;4931619;28;20228;-81
2023/01/20 06:20:45;;;;;;;38.37;20.03;;;-0.30;99.90;;;;;;4939866;28;20338;-81
2023/01/20 06:23:13;;;;;;;44.37;20.13;;;-0.30;99.90;;;;;;4929029;29;20754;-82
2023/01/20 06:25:40;;;;;;;35.37;19.37;;;-0.30;99.90;;;;;;4928675;29;20317;-82
2023/01/20 06:28:07;;;;;;;37.60;19.53;;;-0.30;99.90;;;;;;4934597;28;20231;-81
2023/01/20 06:30:34;;;;;;;30.60;18.57;;;-0.30;99.90;;;;;;4933228;28;20222;-82
2023/01/20 06:33:01;;;;;;;35.97;18.53;;;-0.30;99.90;;;;;;4950951;28;20687;-82
2023/01/20 06:35:28;;;;;;;38.13;18.23;;;-0.20;99.90;;;;;;4928616;28;20258;-81
2023/01/20 06:37:58;;;;;;;35.20;18.57;;;-0.30;99.90;;;;;;4940033;28;20318;-81
2023/01/20 06:40:27;;;;;;;34.83;19.53;;;-0.20;99.90;;;;;;4939568;28;20324;-81
2023/01/20 06:42:54;;;;;;;36.90;19.73;;;-0.20;99.90;;;;;;4940125;28;20812;-82
2023/01/20 06:45:20;;;;;;;32.93;18.80;;;-0.20;99.90;;;;;;4936877;28;20232;-81
2023/01/20 06:47:48;;;;;;;33.30;18.27;;;-0.20;99.90;;;;;;4949852;28;20223;-81
2023/01/20 06:50:15;;;;;;;34.33;19.33;;;-0.20;99.90;;;;;;4949944;28;20258;-81
2023/01/20 06:52:42;;;;;;;38.83;19.73;;;-0.20;99.90;;;;;;4951273;28;20231;-81
2023/01/20 06:55:09;;;;;;;36.73;19.43;;;-0.20;99.90;;;;;;4941817;28;20748;-82
2023/01/20 06:57:37;;;;;;;36.40;18.90;;;-0.10;99.90;;;;;;4932271;28;20224;-81
2023/01/20 07:00:05;;;;;;;42.43;19.87;;;-0.10;99.90;;;;;;4934263;28;20250;-81
2023/01/20 07:02:32;;;;;;;33.80;18.57;;;-0.10;99.90;;;;;;4946594;28;20278;-82
2023/01/20 07:04:59;;;;;;;56.90;20.73;;;-0.10;99.90;;;;;;4954120;28;20224;-82
2023/01/20 07:07:25;;;;;;;37.07;19.57;;;-0.10;99.90;;;;;;4935060;28;20259;-81
2023/01/20 07:09:54;;;;;;;32.47;18.33;;;-0.10;99.90;;;;;;4930312;29;20327;-82
2023/01/20 07:12:21;;;;;;;33.37;19.00;;;-0.10;99.90;;;;;;4935582;28;20229;-82
2023/01/20 07:14:49;;;;;;;36.37;18.97;;;-0.10;99.90;;;;;;4932918;29;20727;-82
2023/01/20 07:17:16;;;;;;;34.73;18.80;;;-0.10;99.90;;;;;;4945195;28;20238;-81
2023/01/20 07:19:42;;;;;;;36.30;19.77;;;-0.10;99.90;;;;;;4943430;29;20350;-82
2023/01/20 07:22:09;;;;;;;33.50;19.57;;;-0.10;99.90;;;;;;4949331;28;20227;-81
2023/01/20 07:24:36;;;;;;;37.30;19.33;;;-0.10;99.90;;;;;;4929699;29;20783;-82
2023/01/20 07:27:02;;;;;;;36.93;19.37;;;-0.10;99.90;;;;;;4929047;28;20783;-81
2023/01/20 07:29:29;;;;;;;35.30;18.90;;;-0.10;99.90;;;;;;4929103;28;20231;-81
2023/01/20 07:31:57;;;;;;;34.80;17.93;;;-0.10;99.90;;;;;;4928291;29;20305;-82
2023/01/20 07:34:24;;;;;;;34.70;17.90;;;0.00;99.90;;;;;;4942844;28;20235;-81
2023/01/20 07:36:52;;;;;;;34.37;18.90;;;0.00;99.90;;;;;;4944456;28;20265;-82
2023/01/20 07:39:18;;;;;;;35.00;19.83;;;0.00;99.90;;;;;;4953933;28;20268;-81
2023/01/20 07:41:47;;;;;;;33.83;19.90;;;0.00;99.90;;;;;;4933725;28;20229;-81
2023/01/20 07:44:15;;;;;;;35.57;18.57;;;0.00;99.90;;;;;;4928286;28;20223;-82
2023/01/20 07:46:42;;;;;;;33.90;18.50;;;0.00;99.90;;;;;;4949263;28;20278;-82
2023/01/20 07:49:10;;;;;;;32.57;18.27;;;0.00;99.90;;;;;;4946240;28;20301;-83
2023/01/20 07:51:38;;;;;;;37.90;19.97;;;0.00;99.90;;;;;;4929942;28;20872;-84
2023/01/20 07:54:05;;;;;;;35.47;17.07;;;0.00;99.90;;;;;;4924953;28;20230;-81
2023/01/20 07:56:32;;;;;;;32.37;18.80;;;0.00;99.90;;;;;;4926587;28;20325;-82
2023/01/20 07:58:59;;;;;;;32.63;17.67;;;0.10;99.90;;;;;;4930488;29;20232;-81
2023/01/20 08:01:27;;;;;;;32.33;16.43;;;0.10;99.90;;;;;;4945424;28;20238;-83
2023/01/20 08:03:54;;;;;;;31.10;17.83;;;0.10;99.90;;;;;;4942358;28;21054;-83
2023/01/20 08:06:24;;;;;;;31.83;18.27;;;0.10;99.90;;;;;;4942471;28;20234;-81
2023/01/20 08:08:53;;;;;;;39.47;18.33;;;0.10;99.90;;;;;;4928509;28;20605;-81
2023/01/20 08:11:22;;;;;;;32.50;18.00;;;0.10;99.90;;;;;;4945734;28;20224;-80
2023/01/20 08:13:49;;;;;;;36.07;19.27;;;0.10;99.90;;;;;;4947873;28;20652;-81
2023/01/20 08:16:17;;;;;;;35.80;19.23;;;0.10;99.90;;;;;;4951179;28;20243;-81
2023/01/20 08:18:44;;;;;;;31.67;17.90;;;0.10;99.90;;;;;;4951532;28;20512;-82
2023/01/20 08:21:18;;;;;;;45.27;24.80;;;0.10;99.90;;;;;;4946995;28;20354;-82
2023/01/20 08:23:46;;;;;;;35.03;17.87;;;0.10;99.90;;;;;;4927218;29;20241;-81
2023/01/20 08:26:14;;;;;;;34.33;18.43;;;0.10;99.90;;;;;;4949895;28;20225;-80
2023/01/20 08:28:43;;;;;;;33.80;17.00;;;0.20;99.90;;;;;;4947867;28;20229;-84
2023/01/20 08:31:15;;;;;;;32.13;17.73;;;0.20;99.90;;;;;;4945052;28;20223;-81
2023/01/20 08:33:46;;;;;;;31.27;16.97;;;0.10;99.90;;;;;;4930739;29;20272;-81
2023/01/20 08:36:16;;;;;;;36.87;18.33;;;0.20;99.90;;;;;;4947468;28;20218;-82
2023/01/20 08:38:44;;;;;;;31.07;16.37;;;0.20;99.90;;;;;;4930551;29;20824;-82
2023/01/20 08:41:14;;;;;;;34.90;18.47;;;0.20;99.90;;;;;;4924630;28;20228;-82
2023/01/20 08:43:42;;;;;;;32.03;17.73;;;0.20;99.90;;;;;;4947702;28;20316;-81
2023/01/20 08:46:10;;;;;;;28.93;16.70;;;0.20;99.90;;;;;;4936978;28;20237;-82
2023/01/20 08:48:40;;;;;;;28.10;15.73;;;0.20;99.90;;;;;;4936392;29;20803;-81
2023/01/20 08:51:08;;;;;;;32.53;16.63;;;0.20;99.90;;;;;;4943675;28;20553;-81
2023/01/20 08:53:35;;;;;;;33.77;16.43;;;0.20;99.90;;;;;;4935606;29;20330;-81
2023/01/20 08:56:03;;;;;;;32.20;16.43;;;0.20;99.90;;;;;;4944447;28;20237;-81
2023/01/20 08:58:32;;;;;;;29.60;16.57;;;0.20;99.90;;;;;;4946760;28;20231;-81
2023/01/20 09:00:59;;;;;;;29.33;16.70;;;0.20;99.90;;;;;;4936209;28;20228;-80
2023/01/20 09:03:26;;;;;;;32.63;16.37;;;0.30;99.90;;;;;;4922390;28;20302;-81
2023/01/20 09:05:53;;;;;;;29.67;15.70;;;0.30;99.90;;;;;;4927235;29;20239;-86
2023/01/20 09:08:20;;;;;;;31.03;16.00;;;0.30;99.90;;;;;;4934544;28;20226;-81
2023/01/20 09:10:47;;;;;;;25.53;15.13;;;0.30;99.90;;;;;;4934827;28;20232;-80
2023/01/20 09:13:13;;;;;;;33.53;19.37;;;0.40;99.90;;;;;;4931834;28;20220;-81
2023/01/20 09:15:41;;;;;;;32.03;18.87;;;0.50;99.90;;;;;;4944926;28;20321;-81
2023/01/20 09:18:08;;;;;;;33.83;17.23;;;0.50;99.90;;;;;;4930514;28;20305;-81
2023/01/20 09:20:38;;;;;;;29.17;16.57;;;0.60;99.90;;;;;;4949558;28;20350;-80
2023/01/20 09:23:04;;;;;;;29.53;16.90;;;0.60;99.90;;;;;;4927097;29;20344;-80
2023/01/20 09:25:31;;;;;;;29.23;16.10;;;0.70;99.90;;;;;;4934140;29;20235;-81
2023/01/20 09:28:01;;;;;;;28.10;15.33;;;0.60;99.90;;;;;;4935419;29;20220;-80
2023/01/20 09:30:28;;;;;;;28.83;16.53;;;0.70;99.90;;;;;;4936003;29;20735;-81
2023/01/20 09:32:58;;;;;;;26.73;16.00;;;0.70;99.90;;;;;;4920004;29;20234;-81
2023/01/20 09:35:27;;;;;;;28.67;15.83;;;0.70;99.90;;;;;;4948405;28;20245;-81
2023/01/20 09:43:55;;;;;;;28.13;15.73;;;0.70;99.90;;;;;;4929738;28;20988;-81
2023/01/20 09:46:36;;;;;;;27.97;15.97;;;0.80;99.90;;;;;;4945136;28;20227;-81
2023/01/20 09:55:00;;;;;;;32.47;18.27;;;0.80;99.90;;;;;;4932201;29;20235;-82
2023/01/20 09:57:30;;;;;;;29.97;16.90;;;0.80;99.90;;;;;;4925424;28;20313;-82
2023/01/20 10:00:05;;;;;;;31.50;17.33;;;0.80;99.90;;;;;;4935635;29;20219;-81
2023/01/20 10:02:37;;;;;;;29.40;16.50;;;0.90;99.90;;;;;;4946087;28;20266;-84
2023/01/20 10:05:15;;;;;;;30.63;18.20;;;0.90;99.90;;;;;;4947483;28;20309;-81
2023/01/20 10:07:49;;;;;;;30.17;17.33;;;0.90;99.90;;;;;;4947126;28;20235;-81
2023/01/20 10:10:35;;;;;;;29.70;16.47;;;1.00;99.90;;;;;;5100177;27;21004;-82
2023/01/20 10:13:07;;;;;;;30.80;17.30;;;1.00;99.90;;;;;;5070073;28;20764;-82
2023/01/20 10:15:41;;;;;;;27.90;17.10;;;1.00;99.90;;;;;;5080085;28;20237;-82
2023/01/20 10:18:13;;;;;;;32.77;17.63;;;1.10;99.90;;;;;;5100860;28;20256;-84
2023/01/20 10:20:46;;;;;;;29.33;17.00;;;1.10;99.90;;;;;;5102910;28;20222;-83
2023/01/20 10:23:21;;;;;;;31.37;17.47;;;1.20;99.90;;;;;;5100395;28;20235;-83
2023/01/20 10:25:53;;;;;;;31.67;18.70;;;1.20;99.90;;;;;;5086583;28;20652;-81
2023/01/20 10:28:26;;;;;;;32.10;18.40;;;1.30;99.90;;;;;;5094710;28;20631;-81
2023/01/20 10:30:55;;;;;;;30.30;18.50;;;1.40;99.90;;;;;;5097539;28;20226;-81
2023/01/20 10:33:29;;;;;;;31.47;17.33;;;1.40;99.90;;;;;;5100038;28;20224;-81
2023/01/20 10:35:59;;;;;;;25.90;16.03;;;1.40;99.90;;;;;;5096450;28;20222;-81
2023/01/20 10:38:32;;;;;;;29.90;17.23;;;1.40;99.90;;;;;;5088733;28;20221;-81
2023/01/20 10:41:09;;;;;;;30.77;17.77;;;1.40;99.90;;;;;;5082547;28;20240;-82
2023/01/20 10:43:35;;;;;;;29.00;18.13;;;1.40;99.90;;;;;;5092650;28;20231;-80
2023/01/20 10:46:19;;;;;;;30.23;18.03;;;1.40;99.90;;;;;;5095563;28;20217;-81
2023/01/20 10:49:15;;;;;;;36.17;19.50;;;1.40;99.90;;;;;;5095702;28;20252;-80
2023/01/20 10:51:52;;;;;;;30.67;17.33;;;1.40;99.90;;;;;;5088808;28;20284;-81
2023/01/20 10:54:28;;;;;;;29.70;17.87;;;1.50;99.90;;;;;;5093550;28;20722;-82
2023/01/20 10:56:59;;;;;;;32.27;19.20;;;1.40;99.90;;;;;;5091646;28;20264;-81
2023/01/20 10:59:30;;;;;;;30.87;17.67;;;1.50;99.90;;;;;;5091533;28;20225;-82
2023/01/20 11:02:01;;;;;;;33.00;18.30;;;1.60;99.90;;;;;;5098227;28;20266;-81
2023/01/20 11:04:28;;;;;;;32.13;18.87;;;1.60;99.90;;;;;;5089313;28;20214;-81
2023/01/20 11:06:59;;;;;;;30.27;19.60;;;1.70;99.90;;;;;;5092515;28;20233;-82
2023/01/20 11:09:32;;;;;;;33.67;17.83;;;1.80;99.90;;;;;;5088313;28;20221;-81
2023/01/20 11:12:03;;;;;;;32.43;17.83;;;1.90;99.90;;;;;;5085560;28;20210;-80
2023/01/20 11:14:30;;;;;;;31.10;17.27;;;2.00;99.90;;;;;;5103276;27;20227;-82
2023/01/20 11:17:03;;;;;;;28.63;17.57;;;2.10;99.90;;;;;;5093527;28;20248;-81
2023/01/20 11:19:45;;;;;;;32.83;19.37;;;2.20;99.90;;;;;;5093698;28;20256;-82
2023/01/20 11:22:13;;;;;;;29.87;17.73;;;2.30;99.90;;;;;;5076193;28;20229;-80
2023/01/20 11:24:42;;;;;;;32.23;17.80;;;2.40;99.90;;;;;;5083559;28;20237;-82
2023/01/20 11:27:16;;;;;;;28.07;16.47;;;2.50;99.90;;;;;;5071498;28;20561;-81
2023/01/20 11:29:48;;;;;;;28.50;17.33;;;2.60;99.90;;;;;;5077569;28;20229;-82
2023/01/20 11:32:27;;;;;;;29.50;17.67;;;2.70;99.90;;;;;;5075223;28;20311;-80
2023/01/20 11:34:54;;;;;;;29.57;17.70;;;2.80;99.90;;;;;;5074644;28;20223;-82
2023/01/20 11:37:24;;;;;;;33.07;17.37;;;2.90;99.90;;;;;;5081913;28;20220;-81
2023/01/20 11:40:00;;;;;;;26.93;15.67;;;3.00;99.90;;;;;;5075717;28;20223;-81
2023/01/20 11:42:30;;;;;;;28.10;16.03;;;3.10;99.90;;;;;;5073492;28;20311;-82
2023/01/20 11:44:59;;;;;;;25.57;14.40;;;3.20;99.90;;;;;;5045197;28;20231;-81
2023/01/20 11:47:30;;;;;;;24.80;14.73;;;3.20;99.90;;;;;;5074139;28;20235;-81
2023/01/20 11:50:31;;;;;;;28.03;15.43;;;3.30;99.90;;;;;;5075193;28;20310;-80
2023/01/20 11:53:19;;;;;;;24.80;14.57;;;3.30;99.90;;;;;;4984628;28;20218;-80
2023/01/20 11:55:54;;;;;;;24.40;14.97;;;3.30;99.90;;;;;;5072452;28;20310;-82
2023/01/20 11:58:27;;;;;;;24.27;14.83;;;3.30;99.90;;;;;;5079424;28;20295;-80
2023/01/20 12:01:01;;;;;;;24.43;15.23;;;3.40;99.90;;;;;;5077660;28;20858;-82
2023/01/20 12:03:46;;;;;;;26.53;14.97;;;3.40;99.90;;;;;;5077708;28;20754;-82
2023/01/20 12:06:16;;;;;;;23.90;14.60;;;3.40;99.90;;;;;;5080657;28;20219;-80
2023/01/20 12:08:48;;;;;;;26.57;16.03;;;3.40;99.90;;;;;;5078759;28;20667;-81
2023/01/20 12:11:20;;;;;;;25.03;15.30;;;3.40;99.90;;;;;;5081212;28;20223;-80
2023/01/20 12:14:21;;;;;;;24.57;14.73;;;3.40;99.90;;;;;;5080026;28;20227;-82
2023/01/20 12:16:55;;;;;;;27.90;15.60;;;3.50;99.90;;;;;;5073723;28;20277;-82
2023/01/20 12:19:30;;;;;;;23.03;13.73;;;3.50;99.90;;;;;;5079799;28;20930;-81
2023/01/20 12:22:03;;;;;;;21.27;13.60;;;3.50;99.90;;;;;;5076222;28;20215;-78
2023/01/20 12:25:06;;;;;;;22.73;14.23;;;3.50;99.90;;;;;;5087464;28;20379;-78
2023/01/20 12:27:25;;;;;;;20.87;13.53;;;3.60;99.90;;;;;;5075835;28;20233;-78
2023/01/20 12:29:58;;;;;;;23.17;14.10;;;3.60;99.90;;;;;;5083687;28;21397;-79
2023/01/20 12:32:25;;;;;;;24.27;14.47;;;3.50;99.90;;;;;;5083949;28;20229;-79
2023/01/20 12:34:51;;;;;;;21.77;14.13;;;3.50;99.90;;;;;;5085259;28;20726;-79
2023/01/20 12:37:26;;;;;;;24.57;14.30;;;3.50;99.90;;;;;;5080226;28;20254;-79
2023/01/20 12:40:08;;;;;;;25.53;14.77;;;3.50;99.90;;;;;;5085012;28;20227;-78
2023/01/20 12:43:01;;;;;;;22.63;13.83;;;3.40;99.90;;;;;;5077551;28;20677;-77
2023/01/20 12:45:44;;;;;;;22.90;13.13;;;3.40;99.90;;;;;;5074813;28;20740;-78
2023/01/20 12:48:23;;;;;;;21.63;13.33;;;3.40;99.90;;;;;;5082175;28;20866;-78
2023/01/20 12:50:58;;;;;;;23.97;13.10;;;3.40;99.90;;;;;;5083051;28;20227;-78
2023/01/20 12:53:50;;;;;;;20.93;13.23;;;3.40;99.90;;;;;;5083589;28;20233;-78
2023/01/20 12:56:30;;;;;;;22.80;13.03;;;3.50;99.90;;;;;;5076398;28;20268;-77
2023/01/20 12:59:04;;;;;;;20.90;13.00;;;3.50;99.90;;;;;;5076165;28;20225;-78
2023/01/20 13:01:47;;;;;;;21.23;12.67;;;3.60;99.90;;;;;;5093086;28;20222;-78